sensor_id;sensor_type;location;lat;lon;timestamp;P1;durP1;ratioP1;P2;durP2;ratioP2
19131;SDS011;9698;51.976;7.570;2023-11-25T00:02:01;4.50;;;1.40;;
19131;SDS011;9698;51.976;7.570;2023-11-25T00:04:29;4.70;;;1.57;;
19131;SDS011;9698;51.976;7.570;2023-11-25T00:06:57;3.60;;;1.20;;
19131;SDS011;9698;51.976;7.570;2023-11-25T00:09:25;3.53;;;1.33;;
19131;SDS011;9698;51.976;7.570;2023-11-25T00:11:52;3.33;;;1.47;;
19131;SDS011;9698;51.976;7.570;2023-11-25T00:14:20;4.13;;;1.50;;
19131;SDS011;9698;51.976;7.570;2023-11-25T00:16:48;2.93;;;1.43;;
19131;SDS011;9698;51.976;7.570;2023-11-25T00:19:17;3.60;;;1.40;;
19131;SDS011;9698;51.976;7.570;2023-11-25T00:21:45;4.10;;;1.07;;
19131;SDS011;9698;51.976;7.570;2023-11-25T00:24:13;3.73;;;1.30;;
19131;SDS011;9698;51.976;7.570;2023-11-25T00:29:11;2.77;;;1.10;;
19131;SDS011;9698;51.976;7.570;2023-11-25T00:31:38;2.50;;;1.20;;
19131;SDS011;9698;51.976;7.570;2023-11-25T00:34:06;4.03;;;1.37;;
19131;SDS011;9698;51.976;7.570;2023-11-25T00:36:34;3.33;;;1.23;;
19131;SDS011;9698;51.976;7.570;2023-11-25T00:39:02;5.07;;;1.40;;
19131;SDS011;9698;51.976;7.570;2023-11-25T00:41:31;3.70;;;1.17;;
19131;SDS011;9698;51.976;7.570;2023-11-25T00:44:00;3.10;;;1.17;;
19131;SDS011;9698;51.976;7.570;2023-11-25T00:46:29;4.33;;;1.20;;
19131;SDS011;9698;51.976;7.570;2023-11-25T00:48:57;2.73;;;1.10;;
19131;SDS011;9698;51.976;7.570;2023-11-25T00:51:25;2.73;;;1.20;;
19131;SDS011;9698;51.976;7.570;2023-11-25T00:53:53;3.43;;;1.20;;
19131;SDS011;9698;51.976;7.570;2023-11-25T00:56:20;4.07;;;1.37;;
19131;SDS011;9698;51.976;7.570;2023-11-25T00:58:48;4.10;;;1.20;;
19131;SDS011;9698;51.976;7.570;2023-11-25T01:01:16;3.37;;;1.20;;
19131;SDS011;9698;51.976;7.570;2023-11-25T01:03:44;5.83;;;1.40;;
19131;SDS011;9698;51.976;7.570;2023-11-25T01:06:12;3.33;;;1.00;;
19131;SDS011;9698;51.976;7.570;2023-11-25T01:08:39;1.90;;;1.17;;
19131;SDS011;9698;51.976;7.570;2023-11-25T01:11:07;4.37;;;1.13;;
19131;SDS011;9698;51.976;7.570;2023-11-25T01:13:35;4.27;;;1.07;;
19131;SDS011;9698;51.976;7.570;2023-11-25T01:16:03;4.37;;;1.23;;
19131;SDS011;9698;51.976;7.570;2023-11-25T01:18:41;4.37;;;1.33;;
19131;SDS011;9698;51.976;7.570;2023-11-25T01:21:09;2.03;;;1.20;;
19131;SDS011;9698;51.976;7.570;2023-11-25T01:23:37;3.17;;;1.20;;
19131;SDS011;9698;51.976;7.570;2023-11-25T01:26:05;4.77;;;1.23;;
19131;SDS011;9698;51.976;7.570;2023-11-25T01:28:32;3.30;;;1.40;;
19131;SDS011;9698;51.976;7.570;2023-11-25T01:31:04;3.50;;;1.00;;
19131;SDS011;9698;51.976;7.570;2023-11-25T01:33:32;5.57;;;1.27;;
19131;SDS011;9698;51.976;7.570;2023-11-25T01:36:00;3.97;;;1.93;;
19131;SDS011;9698;51.976;7.570;2023-11-25T01:38:28;2.93;;;1.30;;
19131;SDS011;9698;51.976;7.570;2023-11-25T01:40:55;3.63;;;1.50;;
19131;SDS011;9698;51.976;7.570;2023-11-25T01:43:23;6.20;;;1.30;;
19131;SDS011;9698;51.976;7.570;2023-11-25T01:45:51;2.30;;;1.50;;
19131;SDS011;9698;51.976;7.570;2023-11-25T01:48:21;3.77;;;1.37;;
19131;SDS011;9698;51.976;7.570;2023-11-25T01:50:50;4.17;;;1.27;;
19131;SDS011;9698;51.976;7.570;2023-11-25T01:53:18;4.10;;;1.33;;
19131;SDS011;9698;51.976;7.570;2023-11-25T01:55:47;5.93;;;1.50;;
19131;SDS011;9698;51.976;7.570;2023-11-25T01:58:18;3.80;;;1.50;;
19131;SDS011;9698;51.976;7.570;2023-11-25T02:00:47;3.77;;;1.37;;
19131;SDS011;9698;51.976;7.570;2023-11-25T02:03:15;3.87;;;1.30;;
19131;SDS011;9698;51.976;7.570;2023-11-25T02:05:43;3.60;;;1.57;;
19131;SDS011;9698;51.976;7.570;2023-11-25T02:08:11;3.73;;;1.30;;
19131;SDS011;9698;51.976;7.570;2023-11-25T02:10:39;3.53;;;1.50;;
19131;SDS011;9698;51.976;7.570;2023-11-25T02:13:07;4.73;;;1.30;;
19131;SDS011;9698;51.976;7.570;2023-11-25T02:15:35;6.57;;;1.70;;
19131;SDS011;9698;51.976;7.570;2023-11-25T02:18:04;3.57;;;1.50;;
19131;SDS011;9698;51.976;7.570;2023-11-25T02:20:34;4.80;;;1.43;;
19131;SDS011;9698;51.976;7.570;2023-11-25T02:23:04;4.87;;;1.50;;
19131;SDS011;9698;51.976;7.570;2023-11-25T02:25:44;4.33;;;1.50;;
19131;SDS011;9698;51.976;7.570;2023-11-25T02:28:13;4.63;;;1.30;;
19131;SDS011;9698;51.976;7.570;2023-11-25T02:30:41;7.97;;;1.60;;
19131;SDS011;9698;51.976;7.570;2023-11-25T02:33:09;2.50;;;1.40;;
19131;SDS011;9698;51.976;7.570;2023-11-25T02:35:38;5.13;;;1.70;;
19131;SDS011;9698;51.976;7.570;2023-11-25T02:38:06;4.00;;;1.33;;
19131;SDS011;9698;51.976;7.570;2023-11-25T02:40:34;3.00;;;1.20;;
19131;SDS011;9698;51.976;7.570;2023-11-25T02:43:02;3.37;;;1.27;;
19131;SDS011;9698;51.976;7.570;2023-11-25T02:45:30;3.40;;;1.20;;
19131;SDS011;9698;51.976;7.570;2023-11-25T02:47:58;5.10;;;1.50;;
19131;SDS011;9698;51.976;7.570;2023-11-25T02:50:26;3.97;;;1.53;;
19131;SDS011;9698;51.976;7.570;2023-11-25T02:52:54;4.43;;;1.30;;
19131;SDS011;9698;51.976;7.570;2023-11-25T02:55:22;4.47;;;1.50;;
19131;SDS011;9698;51.976;7.570;2023-11-25T02:57:50;2.33;;;1.13;;
19131;SDS011;9698;51.976;7.570;2023-11-25T03:00:18;3.47;;;1.30;;
19131;SDS011;9698;51.976;7.570;2023-11-25T03:02:56;7.70;;;1.53;;
19131;SDS011;9698;51.976;7.570;2023-11-25T03:05:34;6.83;;;1.50;;
19131;SDS011;9698;51.976;7.570;2023-11-25T03:08:04;6.07;;;1.47;;
19131;SDS011;9698;51.976;7.570;2023-11-25T03:10:32;3.90;;;1.70;;
19131;SDS011;9698;51.976;7.570;2023-11-25T03:13:01;7.93;;;2.00;;
19131;SDS011;9698;51.976;7.570;2023-11-25T03:15:29;6.13;;;1.93;;
19131;SDS011;9698;51.976;7.570;2023-11-25T03:17:57;5.83;;;1.90;;
19131;SDS011;9698;51.976;7.570;2023-11-25T03:20:25;9.30;;;2.33;;
19131;SDS011;9698;51.976;7.570;2023-11-25T03:22:53;4.07;;;1.87;;
19131;SDS011;9698;51.976;7.570;2023-11-25T03:25:20;3.77;;;1.93;;
19131;SDS011;9698;51.976;7.570;2023-11-25T03:27:49;6.37;;;1.90;;
19131;SDS011;9698;51.976;7.570;2023-11-25T03:30:18;8.60;;;1.93;;
19131;SDS011;9698;51.976;7.570;2023-11-25T03:32:45;7.47;;;2.03;;
19131;SDS011;9698;51.976;7.570;2023-11-25T03:35:15;8.97;;;2.03;;
19131;SDS011;9698;51.976;7.570;2023-11-25T03:37:43;6.93;;;2.27;;
19131;SDS011;9698;51.976;7.570;2023-11-25T03:40:11;6.47;;;2.07;;
19131;SDS011;9698;51.976;7.570;2023-11-25T03:42:42;10.50;;;2.20;;
19131;SDS011;9698;51.976;7.570;2023-11-25T03:45:11;8.00;;;2.63;;
19131;SDS011;9698;51.976;7.570;2023-11-25T03:47:40;9.10;;;2.17;;
19131;SDS011;9698;51.976;7.570;2023-11-25T03:50:09;8.30;;;2.00;;
19131;SDS011;9698;51.976;7.570;2023-11-25T03:52:38;7.37;;;2.17;;
19131;SDS011;9698;51.976;7.570;2023-11-25T03:55:07;8.87;;;2.10;;
19131;SDS011;9698;51.976;7.570;2023-11-25T03:57:36;7.67;;;2.00;;
19131;SDS011;9698;51.976;7.570;2023-11-25T04:00:05;5.63;;;2.17;;
19131;SDS011;9698;51.976;7.570;2023-11-25T04:02:41;5.53;;;2.00;;
19131;SDS011;9698;51.976;7.570;2023-11-25T04:05:10;7.33;;;1.90;;
19131;SDS011;9698;51.976;7.570;2023-11-25T04:07:38;7.27;;;2.10;;
19131;SDS011;9698;51.976;7.570;2023-11-25T04:10:08;5.33;;;1.80;;
19131;SDS011;9698;51.976;7.570;2023-11-25T04:12:39;7.70;;;2.47;;
19131;SDS011;9698;51.976;7.570;2023-11-25T04:15:08;10.50;;;2.33;;
19131;SDS011;9698;51.976;7.570;2023-11-25T04:17:37;7.93;;;2.27;;
19131;SDS011;9698;51.976;7.570;2023-11-25T04:20:06;10.43;;;2.50;;
19131;SDS011;9698;51.976;7.570;2023-11-25T04:22:40;8.50;;;2.37;;
19131;SDS011;9698;51.976;7.570;2023-11-25T04:25:09;5.23;;;2.20;;
19131;SDS011;9698;51.976;7.570;2023-11-25T04:27:38;7.70;;;2.40;;
19131;SDS011;9698;51.976;7.570;2023-11-25T04:30:08;9.17;;;2.60;;
19131;SDS011;9698;51.976;7.570;2023-11-25T04:32:37;9.27;;;2.10;;
19131;SDS011;9698;51.976;7.570;2023-11-25T04:35:07;10.73;;;2.60;;
19131;SDS011;9698;51.976;7.570;2023-11-25T04:37:35;8.20;;;2.27;;
19131;SDS011;9698;51.976;7.570;2023-11-25T04:40:07;9.73;;;2.37;;
19131;SDS011;9698;51.976;7.570;2023-11-25T04:42:37;5.77;;;2.03;;
19131;SDS011;9698;51.976;7.570;2023-11-25T04:45:07;5.90;;;1.97;;
19131;SDS011;9698;51.976;7.570;2023-11-25T04:47:42;9.50;;;2.07;;
19131;SDS011;9698;51.976;7.570;2023-11-25T04:50:13;6.37;;;2.43;;
19131;SDS011;9698;51.976;7.570;2023-11-25T04:52:42;8.83;;;3.47;;
19131;SDS011;9698;51.976;7.570;2023-11-25T04:55:11;10.27;;;2.70;;
19131;SDS011;9698;51.976;7.570;2023-11-25T04:57:39;6.27;;;2.30;;
19131;SDS011;9698;51.976;7.570;2023-11-25T05:00:09;10.47;;;2.43;;
19131;SDS011;9698;51.976;7.570;2023-11-25T05:02:40;6.40;;;2.37;;
19131;SDS011;9698;51.976;7.570;2023-11-25T05:05:09;10.13;;;2.83;;
19131;SDS011;9698;51.976;7.570;2023-11-25T05:07:37;10.03;;;2.60;;
19131;SDS011;9698;51.976;7.570;2023-11-25T05:10:06;4.83;;;2.00;;
19131;SDS011;9698;51.976;7.570;2023-11-25T05:12:36;6.33;;;2.07;;
19131;SDS011;9698;51.976;7.570;2023-11-25T05:15:05;9.03;;;2.47;;
19131;SDS011;9698;51.976;7.570;2023-11-25T05:17:35;7.73;;;2.47;;
19131;SDS011;9698;51.976;7.570;2023-11-25T05:20:03;11.93;;;2.70;;
19131;SDS011;9698;51.976;7.570;2023-11-25T05:22:36;6.00;;;1.97;;
19131;SDS011;9698;51.976;7.570;2023-11-25T05:25:04;7.60;;;2.00;;
19131;SDS011;9698;51.976;7.570;2023-11-25T05:27:33;7.77;;;2.47;;
19131;SDS011;9698;51.976;7.570;2023-11-25T05:30:02;7.13;;;2.40;;
19131;SDS011;9698;51.976;7.570;2023-11-25T05:32:31;7.70;;;2.10;;
19131;SDS011;9698;51.976;7.570;2023-11-25T05:34:59;8.33;;;2.07;;
19131;SDS011;9698;51.976;7.570;2023-11-25T05:37:27;12.10;;;2.97;;
19131;SDS011;9698;51.976;7.570;2023-11-25T05:39:55;10.80;;;2.60;;
19131;SDS011;9698;51.976;7.570;2023-11-25T05:42:22;8.93;;;2.50;;
19131;SDS011;9698;51.976;7.570;2023-11-25T05:44:53;5.50;;;1.83;;
19131;SDS011;9698;51.976;7.570;2023-11-25T05:47:22;11.23;;;2.40;;
19131;SDS011;9698;51.976;7.570;2023-11-25T05:49:50;11.50;;;2.40;;
19131;SDS011;9698;51.976;7.570;2023-11-25T05:52:19;9.13;;;2.10;;
19131;SDS011;9698;51.976;7.570;2023-11-25T05:54:47;7.93;;;2.10;;
19131;SDS011;9698;51.976;7.570;2023-11-25T05:57:15;9.77;;;2.20;;
19131;SDS011;9698;51.976;7.570;2023-11-25T05:59:42;10.30;;;2.60;;
19131;SDS011;9698;51.976;7.570;2023-11-25T06:02:10;8.80;;;2.37;;
19131;SDS011;9698;51.976;7.570;2023-11-25T06:04:38;6.73;;;2.00;;
19131;SDS011;9698;51.976;7.570;2023-11-25T06:07:06;7.23;;;2.10;;
19131;SDS011;9698;51.976;7.570;2023-11-25T06:09:34;8.33;;;2.20;;
19131;SDS011;9698;51.976;7.570;2023-11-25T06:12:02;9.73;;;2.30;;
19131;SDS011;9698;51.976;7.570;2023-11-25T06:14:30;5.00;;;1.73;;
19131;SDS011;9698;51.976;7.570;2023-11-25T06:16:59;10.37;;;2.30;;
19131;SDS011;9698;51.976;7.570;2023-11-25T06:19:29;10.53;;;2.37;;
19131;SDS011;9698;51.976;7.570;2023-11-25T06:21:58;11.20;;;2.77;;
19131;SDS011;9698;51.976;7.570;2023-11-25T06:24:27;9.97;;;2.57;;
19131;SDS011;9698;51.976;7.570;2023-11-25T06:26:55;12.97;;;3.67;;
19131;SDS011;9698;51.976;7.570;2023-11-25T06:29:22;5.53;;;1.90;;
19131;SDS011;9698;51.976;7.570;2023-11-25T06:31:50;9.77;;;2.07;;
19131;SDS011;9698;51.976;7.570;2023-11-25T06:34:18;5.40;;;1.77;;
19131;SDS011;9698;51.976;7.570;2023-11-25T06:36:46;7.40;;;1.90;;
19131;SDS011;9698;51.976;7.570;2023-11-25T06:39:14;7.17;;;2.07;;
19131;SDS011;9698;51.976;7.570;2023-11-25T06:41:45;5.40;;;1.80;;
19131;SDS011;9698;51.976;7.570;2023-11-25T06:44:15;4.77;;;1.83;;
19131;SDS011;9698;51.976;7.570;2023-11-25T06:46:43;5.73;;;2.07;;
19131;SDS011;9698;51.976;7.570;2023-11-25T06:49:12;4.60;;;1.63;;
19131;SDS011;9698;51.976;7.570;2023-11-25T06:51:40;9.33;;;1.97;;
19131;SDS011;9698;51.976;7.570;2023-11-25T06:54:09;5.20;;;1.80;;
19131;SDS011;9698;51.976;7.570;2023-11-25T06:56:37;6.20;;;1.77;;
19131;SDS011;9698;51.976;7.570;2023-11-25T06:59:05;6.23;;;1.57;;
19131;SDS011;9698;51.976;7.570;2023-11-25T07:01:33;8.30;;;1.87;;
19131;SDS011;9698;51.976;7.570;2023-11-25T07:04:01;7.80;;;1.90;;
19131;SDS011;9698;51.976;7.570;2023-11-25T07:06:30;6.60;;;1.67;;
19131;SDS011;9698;51.976;7.570;2023-11-25T07:08:58;4.57;;;2.10;;
19131;SDS011;9698;51.976;7.570;2023-11-25T07:11:26;5.60;;;1.93;;
19131;SDS011;9698;51.976;7.570;2023-11-25T07:13:57;4.00;;;1.30;;
19131;SDS011;9698;51.976;7.570;2023-11-25T07:16:24;7.10;;;1.70;;
19131;SDS011;9698;51.976;7.570;2023-11-25T07:18:52;3.90;;;1.60;;
19131;SDS011;9698;51.976;7.570;2023-11-25T07:21:21;3.37;;;1.57;;
19131;SDS011;9698;51.976;7.570;2023-11-25T07:23:50;4.77;;;1.63;;
19131;SDS011;9698;51.976;7.570;2023-11-25T07:26:17;4.30;;;1.33;;
19131;SDS011;9698;51.976;7.570;2023-11-25T07:28:45;3.47;;;1.23;;
19131;SDS011;9698;51.976;7.570;2023-11-25T07:31:13;5.53;;;1.30;;
19131;SDS011;9698;51.976;7.570;2023-11-25T07:33:41;4.23;;;1.10;;
19131;SDS011;9698;51.976;7.570;2023-11-25T07:36:09;3.70;;;1.30;;
19131;SDS011;9698;51.976;7.570;2023-11-25T07:38:37;3.43;;;1.47;;
19131;SDS011;9698;51.976;7.570;2023-11-25T07:41:05;6.10;;;1.40;;
19131;SDS011;9698;51.976;7.570;2023-11-25T07:43:32;2.43;;;1.10;;
19131;SDS011;9698;51.976;7.570;2023-11-25T07:46:00;3.90;;;1.07;;
19131;SDS011;9698;51.976;7.570;2023-11-25T07:48:28;2.23;;;0.90;;
19131;SDS011;9698;51.976;7.570;2023-11-25T07:50:56;3.77;;;1.30;;
19131;SDS011;9698;51.976;7.570;2023-11-25T07:53:24;4.20;;;1.40;;
19131;SDS011;9698;51.976;7.570;2023-11-25T07:55:52;3.20;;;1.13;;
19131;SDS011;9698;51.976;7.570;2023-11-25T07:58:20;1.60;;;0.93;;
19131;SDS011;9698;51.976;7.570;2023-11-25T08:00:49;2.97;;;0.97;;
19131;SDS011;9698;51.976;7.570;2023-11-25T08:03:16;2.80;;;1.37;;
19131;SDS011;9698;51.976;7.570;2023-11-25T08:05:44;11.10;;;3.37;;
19131;SDS011;9698;51.976;7.570;2023-11-25T08:08:12;11.50;;;3.57;;
19131;SDS011;9698;51.976;7.570;2023-11-25T08:10:40;5.83;;;1.80;;
19131;SDS011;9698;51.976;7.570;2023-11-25T08:13:08;2.53;;;1.20;;
19131;SDS011;9698;51.976;7.570;2023-11-25T08:15:36;1.20;;;1.10;;
19131;SDS011;9698;51.976;7.570;2023-11-25T08:18:04;4.43;;;1.33;;
19131;SDS011;9698;51.976;7.570;2023-11-25T08:20:32;2.57;;;1.10;;
19131;SDS011;9698;51.976;7.570;2023-11-25T08:23:00;3.90;;;1.07;;
19131;SDS011;9698;51.976;7.570;2023-11-25T08:25:28;6.87;;;1.30;;
19131;SDS011;9698;51.976;7.570;2023-11-25T08:27:56;1.87;;;1.20;;
19131;SDS011;9698;51.976;7.570;2023-11-25T08:30:23;1.43;;;1.00;;
19131;SDS011;9698;51.976;7.570;2023-11-25T08:32:51;5.87;;;1.97;;
19131;SDS011;9698;51.976;7.570;2023-11-25T08:35:19;3.87;;;1.40;;
19131;SDS011;9698;51.976;7.570;2023-11-25T08:37:47;3.43;;;1.80;;
19131;SDS011;9698;51.976;7.570;2023-11-25T08:40:15;3.40;;;1.60;;
19131;SDS011;9698;51.976;7.570;2023-11-25T08:42:44;4.30;;;1.50;;
19131;SDS011;9698;51.976;7.570;2023-11-25T08:45:13;4.63;;;1.63;;
19131;SDS011;9698;51.976;7.570;2023-11-25T08:47:41;5.57;;;1.53;;
19131;SDS011;9698;51.976;7.570;2023-11-25T08:50:10;4.67;;;1.27;;
19131;SDS011;9698;51.976;7.570;2023-11-25T08:52:41;5.57;;;1.60;;
19131;SDS011;9698;51.976;7.570;2023-11-25T08:55:11;4.20;;;1.27;;
19131;SDS011;9698;51.976;7.570;2023-11-25T08:57:43;5.07;;;1.63;;
19131;SDS011;9698;51.976;7.570;2023-11-25T09:00:12;1.60;;;1.10;;
19131;SDS011;9698;51.976;7.570;2023-11-25T09:02:42;3.63;;;1.57;;
19131;SDS011;9698;51.976;7.570;2023-11-25T09:05:11;6.00;;;1.47;;
19131;SDS011;9698;51.976;7.570;2023-11-25T09:07:41;4.90;;;1.63;;
19131;SDS011;9698;51.976;7.570;2023-11-25T09:10:10;6.27;;;1.57;;
19131;SDS011;9698;51.976;7.570;2023-11-25T09:12:39;3.07;;;1.50;;
19131;SDS011;9698;51.976;7.570;2023-11-25T09:15:07;3.60;;;1.70;;
19131;SDS011;9698;51.976;7.570;2023-11-25T09:17:38;6.13;;;1.77;;
19131;SDS011;9698;51.976;7.570;2023-11-25T09:20:08;4.83;;;1.50;;
19131;SDS011;9698;51.976;7.570;2023-11-25T09:22:39;4.77;;;1.63;;
19131;SDS011;9698;51.976;7.570;2023-11-25T09:25:08;3.23;;;1.57;;
19131;SDS011;9698;51.976;7.570;2023-11-25T09:27:36;4.10;;;1.40;;
19131;SDS011;9698;51.976;7.570;2023-11-25T09:30:06;4.30;;;1.60;;
19131;SDS011;9698;51.976;7.570;2023-11-25T09:32:37;3.10;;;1.27;;
19131;SDS011;9698;51.976;7.570;2023-11-25T09:35:05;4.30;;;1.47;;
19131;SDS011;9698;51.976;7.570;2023-11-25T09:37:33;4.50;;;1.80;;
19131;SDS011;9698;51.976;7.570;2023-11-25T09:40:01;4.30;;;1.37;;
19131;SDS011;9698;51.976;7.570;2023-11-25T09:42:31;6.50;;;1.70;;
19131;SDS011;9698;51.976;7.570;2023-11-25T09:44:59;4.30;;;1.60;;
19131;SDS011;9698;51.976;7.570;2023-11-25T09:47:27;2.47;;;1.20;;
19131;SDS011;9698;51.976;7.570;2023-11-25T09:49:55;4.53;;;1.47;;
19131;SDS011;9698;51.976;7.570;2023-11-25T09:52:23;3.40;;;1.33;;
19131;SDS011;9698;51.976;7.570;2023-11-25T09:54:54;3.30;;;1.53;;
19131;SDS011;9698;51.976;7.570;2023-11-25T09:57:24;4.33;;;1.10;;
19131;SDS011;9698;51.976;7.570;2023-11-25T09:59:58;3.53;;;1.00;;
19131;SDS011;9698;51.976;7.570;2023-11-25T10:02:28;5.00;;;1.40;;
19131;SDS011;9698;51.976;7.570;2023-11-25T10:04:56;4.37;;;1.20;;
19131;SDS011;9698;51.976;7.570;2023-11-25T10:07:25;2.80;;;1.30;;
19131;SDS011;9698;51.976;7.570;2023-11-25T10:09:54;7.00;;;3.30;;
19131;SDS011;9698;51.976;7.570;2023-11-25T10:12:22;5.70;;;1.50;;
19131;SDS011;9698;51.976;7.570;2023-11-25T10:14:50;5.27;;;1.47;;
19131;SDS011;9698;51.976;7.570;2023-11-25T10:17:19;3.20;;;1.20;;
19131;SDS011;9698;51.976;7.570;2023-11-25T10:19:48;8.87;;;3.00;;
19131;SDS011;9698;51.976;7.570;2023-11-25T10:22:16;6.40;;;1.67;;
19131;SDS011;9698;51.976;7.570;2023-11-25T10:24:44;4.10;;;1.60;;
19131;SDS011;9698;51.976;7.570;2023-11-25T10:27:15;8.03;;;1.70;;
19131;SDS011;9698;51.976;7.570;2023-11-25T10:29:43;4.73;;;2.17;;
19131;SDS011;9698;51.976;7.570;2023-11-25T10:32:13;5.47;;;1.60;;
19131;SDS011;9698;51.976;7.570;2023-11-25T10:34:41;6.37;;;1.50;;
19131;SDS011;9698;51.976;7.570;2023-11-25T10:37:09;7.60;;;1.87;;
19131;SDS011;9698;51.976;7.570;2023-11-25T10:39:36;7.10;;;1.90;;
19131;SDS011;9698;51.976;7.570;2023-11-25T10:42:05;5.40;;;1.93;;
19131;SDS011;9698;51.976;7.570;2023-11-25T10:44:33;8.27;;;1.97;;
19131;SDS011;9698;51.976;7.570;2023-11-25T10:47:01;7.17;;;2.13;;
19131;SDS011;9698;51.976;7.570;2023-11-25T10:49:31;3.90;;;1.67;;
19131;SDS011;9698;51.976;7.570;2023-11-25T10:52:00;4.97;;;1.30;;
19131;SDS011;9698;51.976;7.570;2023-11-25T10:54:30;7.40;;;2.17;;
19131;SDS011;9698;51.976;7.570;2023-11-25T10:57:02;5.33;;;1.50;;
19131;SDS011;9698;51.976;7.570;2023-11-25T10:59:33;6.77;;;1.77;;
19131;SDS011;9698;51.976;7.570;2023-11-25T11:02:05;3.07;;;1.50;;
19131;SDS011;9698;51.976;7.570;2023-11-25T11:04:41;1.90;;;1.20;;
19131;SDS011;9698;51.976;7.570;2023-11-25T11:07:15;2.77;;;1.30;;
19131;SDS011;9698;51.976;7.570;2023-11-25T11:09:45;2.37;;;1.23;;
19131;SDS011;9698;51.976;7.570;2023-11-25T11:12:16;1.43;;;1.03;;
19131;SDS011;9698;51.976;7.570;2023-11-25T11:14:53;3.03;;;1.20;;
19131;SDS011;9698;51.976;7.570;2023-11-25T11:17:37;8.60;;;1.77;;
19131;SDS011;9698;51.976;7.570;2023-11-25T11:20:12;2.67;;;1.07;;
19131;SDS011;9698;51.976;7.570;2023-11-25T11:22:41;5.70;;;1.43;;
19131;SDS011;9698;51.976;7.570;2023-11-25T11:25:11;5.23;;;1.37;;
19131;SDS011;9698;51.976;7.570;2023-11-25T11:27:44;3.33;;;1.60;;
19131;SDS011;9698;51.976;7.570;2023-11-25T11:30:24;8.07;;;1.87;;
19131;SDS011;9698;51.976;7.570;2023-11-25T11:32:58;4.37;;;1.50;;
19131;SDS011;9698;51.976;7.570;2023-11-25T11:35:37;6.50;;;1.50;;
19131;SDS011;9698;51.976;7.570;2023-11-25T11:38:24;4.00;;;1.43;;
19131;SDS011;9698;51.976;7.570;2023-11-25T11:40:54;3.60;;;1.30;;
19131;SDS011;9698;51.976;7.570;2023-11-25T11:43:25;4.37;;;1.40;;
19131;SDS011;9698;51.976;7.570;2023-11-25T11:45:55;5.80;;;1.83;;
19131;SDS011;9698;51.976;7.570;2023-11-25T11:48:25;5.50;;;1.63;;
19131;SDS011;9698;51.976;7.570;2023-11-25T11:50:56;8.03;;;1.70;;
19131;SDS011;9698;51.976;7.570;2023-11-25T11:53:24;4.80;;;1.90;;
19131;SDS011;9698;51.976;7.570;2023-11-25T11:55:52;4.00;;;1.50;;
19131;SDS011;9698;51.976;7.570;2023-11-25T11:58:21;5.23;;;1.83;;
19131;SDS011;9698;51.976;7.570;2023-11-25T12:01:06;4.93;;;1.90;;
19131;SDS011;9698;51.976;7.570;2023-11-25T12:03:35;4.87;;;1.80;;
19131;SDS011;9698;51.976;7.570;2023-11-25T12:06:04;4.23;;;1.70;;
19131;SDS011;9698;51.976;7.570;2023-11-25T12:08:34;6.90;;;2.30;;
19131;SDS011;9698;51.976;7.570;2023-11-25T12:11:02;6.13;;;2.00;;
19131;SDS011;9698;51.976;7.570;2023-11-25T12:13:32;5.87;;;1.63;;
19131;SDS011;9698;51.976;7.570;2023-11-25T12:16:02;6.80;;;1.83;;
19131;SDS011;9698;51.976;7.570;2023-11-25T12:18:32;8.00;;;2.40;;
19131;SDS011;9698;51.976;7.570;2023-11-25T12:21:01;8.00;;;1.83;;
19131;SDS011;9698;51.976;7.570;2023-11-25T12:23:31;6.90;;;1.83;;
19131;SDS011;9698;51.976;7.570;2023-11-25T12:26:17;9.37;;;2.53;;
19131;SDS011;9698;51.976;7.570;2023-11-25T12:28:48;8.83;;;2.10;;
19131;SDS011;9698;51.976;7.570;2023-11-25T12:31:16;4.57;;;1.60;;
19131;SDS011;9698;51.976;7.570;2023-11-25T12:33:44;5.33;;;2.47;;
19131;SDS011;9698;51.976;7.570;2023-11-25T12:36:11;6.27;;;2.10;;
19131;SDS011;9698;51.976;7.570;2023-11-25T12:38:39;7.97;;;2.37;;
19131;SDS011;9698;51.976;7.570;2023-11-25T12:41:08;6.17;;;1.87;;
19131;SDS011;9698;51.976;7.570;2023-11-25T12:46:31;4.50;;;1.40;;
19131;SDS011;9698;51.976;7.570;2023-11-25T12:49:01;2.87;;;1.20;;
19131;SDS011;9698;51.976;7.570;2023-11-25T12:51:44;3.23;;;1.37;;
19131;SDS011;9698;51.976;7.570;2023-11-25T12:54:12;1.17;;;1.07;;
19131;SDS011;9698;51.976;7.570;2023-11-25T12:56:40;2.77;;;1.80;;
19131;SDS011;9698;51.976;7.570;2023-11-25T12:59:08;2.70;;;1.30;;
19131;SDS011;9698;51.976;7.570;2023-11-25T13:01:38;1.90;;;0.77;;
19131;SDS011;9698;51.976;7.570;2023-11-25T13:04:06;4.43;;;1.30;;
19131;SDS011;9698;51.976;7.570;2023-11-25T13:06:44;2.73;;;0.90;;
19131;SDS011;9698;51.976;7.570;2023-11-25T13:09:14;1.97;;;1.00;;
19131;SDS011;9698;51.976;7.570;2023-11-25T13:11:46;2.17;;;0.90;;
19131;SDS011;9698;51.976;7.570;2023-11-25T13:14:14;1.13;;;0.97;;
19131;SDS011;9698;51.976;7.570;2023-11-25T13:16:43;1.77;;;0.90;;
19131;SDS011;9698;51.976;7.570;2023-11-25T13:19:12;2.63;;;1.00;;
19131;SDS011;9698;51.976;7.570;2023-11-25T13:21:39;1.87;;;1.10;;
19131;SDS011;9698;51.976;7.570;2023-11-25T13:24:08;2.90;;;1.27;;
19131;SDS011;9698;51.976;7.570;2023-11-25T13:26:37;4.90;;;1.67;;
19131;SDS011;9698;51.976;7.570;2023-11-25T13:29:05;2.23;;;1.03;;
19131;SDS011;9698;51.976;7.570;2023-11-25T13:31:33;3.60;;;1.40;;
19131;SDS011;9698;51.976;7.570;2023-11-25T13:34:01;2.67;;;1.67;;
19131;SDS011;9698;51.976;7.570;2023-11-25T13:36:31;2.50;;;1.90;;
19131;SDS011;9698;51.976;7.570;2023-11-25T13:38:59;4.17;;;1.93;;
19131;SDS011;9698;51.976;7.570;2023-11-25T13:41:30;3.70;;;1.70;;
19131;SDS011;9698;51.976;7.570;2023-11-25T13:43:58;4.07;;;1.50;;
19131;SDS011;9698;51.976;7.570;2023-11-25T13:46:26;3.70;;;1.13;;
19131;SDS011;9698;51.976;7.570;2023-11-25T13:48:54;4.57;;;1.10;;
19131;SDS011;9698;51.976;7.570;2023-11-25T13:51:22;3.87;;;1.50;;
19131;SDS011;9698;51.976;7.570;2023-11-25T13:53:49;3.50;;;1.60;;
19131;SDS011;9698;51.976;7.570;2023-11-25T13:56:17;7.83;;;1.63;;
19131;SDS011;9698;51.976;7.570;2023-11-25T13:58:45;4.20;;;1.30;;
19131;SDS011;9698;51.976;7.570;2023-11-25T14:01:13;2.93;;;1.67;;
19131;SDS011;9698;51.976;7.570;2023-11-25T14:03:42;3.40;;;1.60;;
19131;SDS011;9698;51.976;7.570;2023-11-25T14:06:10;3.43;;;1.20;;
19131;SDS011;9698;51.976;7.570;2023-11-25T14:08:38;5.37;;;1.10;;
19131;SDS011;9698;51.976;7.570;2023-11-25T14:11:06;1.80;;;1.17;;
19131;SDS011;9698;51.976;7.570;2023-11-25T14:13:35;4.13;;;1.30;;
19131;SDS011;9698;51.976;7.570;2023-11-25T14:16:03;4.27;;;1.70;;
19131;SDS011;9698;51.976;7.570;2023-11-25T14:18:32;2.43;;;1.20;;
19131;SDS011;9698;51.976;7.570;2023-11-25T14:20:59;4.13;;;1.30;;
19131;SDS011;9698;51.976;7.570;2023-11-25T14:23:29;3.43;;;1.40;;
19131;SDS011;9698;51.976;7.570;2023-11-25T14:25:56;3.87;;;1.20;;
19131;SDS011;9698;51.976;7.570;2023-11-25T14:28:24;3.57;;;1.20;;
19131;SDS011;9698;51.976;7.570;2023-11-25T14:30:52;2.90;;;1.20;;
19131;SDS011;9698;51.976;7.570;2023-11-25T14:33:20;1.83;;;1.10;;
19131;SDS011;9698;51.976;7.570;2023-11-25T14:35:49;3.37;;;1.40;;
19131;SDS011;9698;51.976;7.570;2023-11-25T14:38:16;3.70;;;1.57;;
19131;SDS011;9698;51.976;7.570;2023-11-25T14:40:44;5.37;;;1.63;;
19131;SDS011;9698;51.976;7.570;2023-11-25T14:43:13;4.20;;;2.20;;
19131;SDS011;9698;51.976;7.570;2023-11-25T14:45:41;3.43;;;2.20;;
19131;SDS011;9698;51.976;7.570;2023-11-25T14:48:09;5.47;;;2.30;;
19131;SDS011;9698;51.976;7.570;2023-11-25T14:50:39;3.97;;;1.50;;
19131;SDS011;9698;51.976;7.570;2023-11-25T14:53:07;3.03;;;1.27;;
19131;SDS011;9698;51.976;7.570;2023-11-25T14:55:38;4.20;;;1.30;;
19131;SDS011;9698;51.976;7.570;2023-11-25T14:58:06;2.93;;;1.10;;
19131;SDS011;9698;51.976;7.570;2023-11-25T15:00:35;2.03;;;1.10;;
19131;SDS011;9698;51.976;7.570;2023-11-25T15:03:06;5.03;;;1.40;;
19131;SDS011;9698;51.976;7.570;2023-11-25T15:05:35;2.93;;;1.43;;
19131;SDS011;9698;51.976;7.570;2023-11-25T15:08:03;2.20;;;1.30;;
19131;SDS011;9698;51.976;7.570;2023-11-25T15:10:32;4.13;;;1.40;;
19131;SDS011;9698;51.976;7.570;2023-11-25T15:12:59;3.80;;;1.20;;
19131;SDS011;9698;51.976;7.570;2023-11-25T15:15:27;1.43;;;1.03;;
19131;SDS011;9698;51.976;7.570;2023-11-25T15:17:56;3.00;;;1.30;;